SBKP Airport Information

Runway Information
Runway 15 Length 10630 ft width 148 ft
Elevation 2139 ft Threshold 0 ft Heading 128
Runway 33 Length 10630 ft Width 148 ft
Elevation 2170 ft Threshold 0 ft Heading 308
Airport Frequencies
Type APP Name CAMPINAS A Frequency 121.4 MHZ
Type GND Name GND Frequency 121.9 MHZ
Type TWR Name CAMPINAS T Frequency 118.25 MHZ
Airport Navaids
Type VOR-DME Name Campinas Frequency 112000 KHZ
Type NDB Name Grama Frequency 395 KHZ
Airport Weather Information & NOTAM
ADDS - METARS form results

(2116 UTC 16 August 2018)
 
METAR text: SBKP 162100Z 14014KT CAVOK 19/12 Q1025
Conditions at: SBKP (CAMPINAS/VIRACOP, BR) observed 2100 UTC 16 August 2018
Temperature: 19.0°C (66°F)
Dewpoint: 12.0°C (54°F) [RH = 64%]
Pressure (altimeter): 30.27 inches Hg (1025.0 mb)
Winds: from the SE (140 degrees) at 16 MPH (14 knots; 7.3 m/s)
Visibility: 6 or more miles (10+ km)
Ceiling: ceiling and visibility are OK
Clouds: unknown
Weather: no significant weather observed at this time